Terminal Aerodrome Forecast
Issued by NWS

Home | Current Version | Previous Version | Text Only | Print | Product List | Glossary On
Versions: 1 2 3 4 5 6 7 8 9 10 11 12
799
FTUS45 KABQ 071720
TAFAEG
TAF
KAEG 071720Z 0718/0818 32012KT P6SM SCT250
     FM080200 32007KT P6SM FEW250=

USA.gov is the U.S. government's official web portal to all federal, state and local government web resources and services.